Latest Weather Observations for Campbelltown

IDN60801

Issued at 10:05 am EST Tuesday 23 September 2014 (issued every 30 minutes, with the page automatically refreshed every 10 minutes)

About weather observations | Map of weather stations | Latest weather observations for NSW | Other Formats
Station Details ID: 068257 Name: CAMPBELLTOWN (MOUNT ANNAN) Lat: -34.06 Lon: 150.77 Height: 112.0 m
Data from the previous 72 hours. | See also: Recent months at Campbelltown
Date/Time
EST
Temp
°C
App
Temp
°C
Dew
Point
Rel
Hum
%
Delta-T
°C
Wind Press
QNH
hPa
Press
MSL
hPa
Rain
since 9 am
mm
Dir
 
Spd
km/h
Gust
km/h
Spd
kts
Gust
kts
23/10:00am 17.8 15.7 8.4 54 4.9 N 9 13 5 7 - - 0.0
23/09:30am 16.7 15.5 9.4 62 3.8 NNW 6 7 3 4 - - 0.0
23/09:00am 15.0 13.8 9.6 70 2.8 SW 6 9 3 5 - - 0.0
23/08:30am 13.4 12.1 9.8 79 1.9 SW 7 9 4 5 - - 0.0
23/08:00am 11.5 11.2 10.1 91 0.7 S 2 7 1 4 - - 0.0
23/07:30am 9.5 8.6 9.4 99 0.0 S 4 9 2 5 - - 0.0
23/07:00am 8.0 7.5 7.9 99 0.0 SSW 0 0 0 0 - - 0.0
23/06:30am 6.0 5.1 5.9 99 0.0 CALM 0 0 0 0 - - 0.0
23/06:00am 5.8 4.8 5.7 99 0.0 SSW 0 6 0 3 - - 0.0
23/05:30am 5.8 3.7 5.7 99 0.0 S 6 9 3 5 - - 0.0
23/05:00am 5.4 4.0 5.3 99 0.0 E 2 7 1 4 - - 0.0
23/04:30am 5.3 3.8 5.2 99 0.0 E 2 6 1 3 - - 0.0
23/04:00am 5.7 4.7 5.6 99 0.0 CALM 0 0 0 0 - - 0.0
23/03:30am 6.1 5.2 6.0 99 0.0 CALM 0 0 0 0 - - 0.0
23/03:00am 6.2 5.3 6.1 99 0.0 CALM 0 0 0 0 - - 0.0
23/02:30am 6.6 4.7 6.5 99 0.0 E 6 6 3 3 - - 0.0
23/02:00am 6.9 5.0 6.8 99 0.0 E 6 7 3 4 - - 0.0
23/01:30am 7.1 6.3 6.7 97 0.2 CALM 0 0 0 0 - - 0.0
23/01:00am 7.7 7.1 7.3 97 0.2 CALM 0 0 0 0 - - 0.0
23/12:30am 8.2 7.2 7.4 95 0.4 E 2 6 1 3 - - 0.0
23/12:00am 8.9 8.5 8.3 96 0.3 E 0 0 0 0 - - 0.0
 
Date/Time
EST
Temp
°C
App
Temp
°C
Dew
Point
Rel
Hum
%
Delta-T
°C
Wind Press
QNH
hPa
Press
MSL
hPa
Rain
since 9 am
mm
Dir
 
Spd
km/h
Gust
km/h
Spd
kts
Gust
kts
22/11:30pm 9.3 9.0 8.5 95 0.4 E 0 0 0 0 - - 0.0
22/11:00pm 9.5 9.2 8.7 95 0.4 CALM 0 0 0 0 - - 0.0
22/10:30pm 9.7 9.5 8.9 95 0.4 CALM 0 0 0 0 - - 0.0
22/10:00pm 9.6 9.2 8.4 92 0.6 CALM 0 0 0 0 - - 0.0
22/09:30pm 10.1 9.7 8.2 88 0.9 CALM 0 0 0 0 - - 0.0
22/09:00pm 10.5 10.2 8.8 89 0.8 CALM 0 0 0 0 - - 0.0
22/08:30pm 10.7 10.4 8.5 86 1.1 CALM 0 0 0 0 - - 0.0
22/08:00pm 11.2 10.8 8.2 82 1.5 CALM 0 0 0 0 - - 0.0
22/07:30pm 12.1 11.6 7.8 75 2.1 CALM 0 0 0 0 - - 0.0
22/07:00pm 14.1 12.6 8.5 69 2.8 E 6 7 3 4 - - 0.0
22/06:30pm 14.8 13.1 8.3 65 3.3 E 7 11 4 6 - - 0.0
22/06:00pm 15.8 13.7 8.3 61 3.8 E 9 19 5 10 - - 0.0
22/05:30pm 16.7 14.6 8.1 57 4.4 E 9 20 5 11 - - 0.0
22/05:00pm 18.2 15.6 7.9 51 5.3 ENE 11 19 6 10 - - 0.0
22/04:30pm 19.1 16.2 8.1 49 5.7 NE 13 19 7 10 - - 0.0
22/04:00pm 19.7 17.1 7.8 46 6.1 ENE 11 17 6 9 - - 0.0
22/03:30pm 20.7 17.8 4.7 35 7.8 NNE 9 15 5 8 - - 0.0
22/03:00pm 21.0 18.3 5.4 36 7.8 E 9 13 5 7 - - 0.0
22/02:30pm 21.1 18.5 6.2 38 7.5 N 9 15 5 8 - - 0.0
22/02:00pm 20.4 17.9 4.8 36 7.6 N 7 13 4 7 - - 0.0
22/01:30pm 21.0 18.6 6.9 40 7.2 ENE 9 17 5 9 - - 0.0
22/01:00pm 20.0 17.6 7.1 43 6.6 NE 9 19 5 10 - - 0.0
22/12:30pm 19.7 16.6 7.1 44 6.4 N 13 22 7 12 - - 0.0
22/12:00pm 19.3 16.5 6.8 44 6.3 N 11 19 6 10 - - 0.0
22/11:30am 19.4 16.7 7.2 45 6.2 NW 11 17 6 9 - - 0.0
22/11:00am 17.9 15.4 6.7 48 5.6 N 9 15 5 8 - - 0.0
22/10:30am 18.7 16.9 7.8 49 5.6 NNW 7 15 4 8 - - 0.0
22/10:00am 17.7 15.6 8.3 54 4.8 NNW 9 13 5 7 - - 0.0
22/09:30am 17.2 15.5 8.4 56 4.5 ENE 7 11 4 6 - - 0.0
22/09:00am 16.4 15.0 8.9 61 3.9 N 6 11 3 6 - - -
22/08:30am 15.2 14.1 10.0 71 2.7 SSW 6 9 3 5 - - -
22/08:00am 13.3 11.5 9.4 77 2.0 SSW 9 11 5 6 - - -
22/07:30am 11.4 10.1 9.8 90 0.8 S 7 11 4 6 - - -
22/07:00am 8.9 8.6 8.8 99 0.0 CALM 0 0 0 0 - - -
22/06:30am 7.9 7.3 7.5 97 0.2 CALM 0 4 0 2 - - -
22/06:00am 8.0 7.4 7.4 96 0.3 CALM 0 0 0 0 - - -
22/05:30am 8.5 7.6 7.9 96 0.3 S 2 6 1 3 - - -
22/05:00am 8.8 8.3 7.9 94 0.4 CALM 0 6 0 3 - - -
22/04:30am 9.5 7.8 8.3 92 0.6 S 7 11 4 6 - - -
22/04:00am 10.1 8.7 8.7 91 0.7 S 6 9 3 5 - - -
22/03:30am 10.3 8.9 9.7 96 0.3 S 7 9 4 5 - - -
22/03:00am 8.0 6.6 7.4 96 0.3 S 4 7 2 4 - - -
22/02:30am 8.1 6.2 6.9 92 0.6 S 6 7 3 4 - - -
22/02:00am 9.0 7.7 7.6 91 0.7 S 4 6 2 3 - - -
22/01:30am 9.9 8.3 8.0 88 0.9 S 6 9 3 5 - - -
22/01:00am 10.8 9.3 8.4 85 1.2 S 6 7 3 4 - - -
22/12:00am 12.1 11.2 9.1 82 1.5 S 4 7 2 4 - - -
 
Date/Time
EST
Temp
°C
App
Temp
°C
Dew
Point
Rel
Hum
%
Delta-T
°C
Wind Press
QNH
hPa
Press
MSL
hPa
Rain
since 9 am
mm
Dir
 
Spd
km/h
Gust
km/h
Spd
kts
Gust
kts
21/11:30pm 12.3 11.0 9.3 82 1.5 S 6 7 3 4 - - -
21/11:00pm 11.9 10.5 8.7 81 1.6 S 6 6 3 3 - - 0.0
21/10:30pm 12.5 11.2 9.1 80 1.7 S 6 7 3 4 - - 0.0
21/10:00pm 12.6 11.3 9.1 79 1.8 S 6 7 3 4 - - 0.0
21/09:30pm 12.8 11.6 9.4 80 1.7 S 6 7 3 4 - - 0.0
21/09:00pm 12.1 12.1 9.7 85 1.2 CALM 0 0 0 0 - - 0.0
21/08:30pm 11.0 10.8 9.1 88 1.0 CALM 0 0 0 0 - - 0.0
21/08:00pm 9.9 9.4 7.7 86 1.1 CALM 0 0 0 0 - - 0.0
21/07:30pm 10.6 10.1 7.7 82 1.4 CALM 0 0 0 0 - - 0.0
21/07:00pm 11.4 10.8 7.3 76 2.0 CALM 0 0 0 0 - - 0.0
21/06:30pm 12.7 11.4 7.6 71 2.5 SSE 4 7 2 4 - - 0.0
21/06:00pm 13.9 12.1 7.9 67 3.0 SE 7 17 4 9 - - 0.0
21/05:30pm 14.9 12.8 8.2 64 3.4 ESE 9 17 5 9 - - 0.0
21/05:00pm 16.2 13.3 8.2 59 4.1 SE 13 22 7 12 - - 0.0
21/04:30pm 17.2 14.3 8.1 55 4.7 E 13 22 7 12 - - 0.0
21/04:00pm 18.1 14.4 8.1 52 5.1 ESE 17 28 9 15 - - 0.0
21/03:30pm 19.2 16.2 7.6 47 5.9 E 13 24 7 13 - - 0.0
21/03:00pm 20.6 18.0 4.2 34 8.0 N 7 13 4 7 - - 0.0
21/02:30pm 20.5 17.6 4.5 35 7.8 NNW 9 13 5 7 - - 0.0
21/02:00pm 20.6 18.1 5.0 36 7.7 ENE 7 11 4 6 - - 0.0
21/01:30pm 19.8 16.1 4.3 36 7.5 N 13 20 7 11 - - 0.0
21/01:00pm 20.2 17.5 5.8 39 7.2 N 9 19 5 10 - - 0.0
21/12:30pm 19.8 17.0 5.1 38 7.2 NNW 9 15 5 8 - - 0.0
21/12:00pm 19.3 16.7 6.1 42 6.6 N 9 17 5 9 - - 0.0
21/11:30am 17.8 15.8 7.2 50 5.3 N 7 11 4 6 - - 0.0
21/11:00am 19.0 16.7 7.4 47 5.9 WSW 9 13 5 7 - - 0.0
21/10:30am 17.8 15.4 7.2 50 5.3 N 9 15 5 8 - - 0.0
21/10:00am 17.0 14.9 8.2 56 4.5 SSW 9 15 5 8 - - 0.0
21/09:30am 16.1 13.7 8.6 61 3.8 SSW 11 15 6 8 - - 0.0
21/09:00am 15.3 12.5 8.5 64 3.5 SW 13 20 7 11 - - 0.0
21/08:30am 14.0 12.0 8.6 70 2.7 SSW 9 15 5 8 - - 0.0
21/08:00am 12.2 10.2 8.5 78 1.8 S 9 15 5 8 - - 0.0
21/07:30am 10.1 8.0 8.2 88 0.9 S 9 11 5 6 - - 0.0
21/07:00am 8.9 6.8 8.3 96 0.3 S 9 11 5 6 - - 0.0
21/06:30am 6.8 4.7 6.7 99 0.0 SSW 7 11 4 6 - - 0.0
21/06:00am 5.0 3.5 4.9 99 0.0 SSW 2 9 1 5 - - 0.0
21/05:30am 5.1 3.2 5.0 99 0.0 SSW 4 7 2 4 - - 0.0
21/05:00am 5.5 3.3 5.4 99 0.0 SSW 6 7 3 4 - - 0.0
21/04:30am 5.3 4.2 5.2 99 0.0 CALM 0 0 0 0 - - 0.0
21/04:00am 5.6 3.4 5.5 99 0.0 SSW 6 7 3 4 - - 0.0
21/03:30am 5.6 4.5 5.3 98 0.1 CALM 0 0 0 0 - - 0.0
21/03:00am 5.5 4.4 5.1 97 0.2 CALM 0 0 0 0 - - 0.0
21/02:30am 5.7 4.6 5.3 97 0.2 CALM 0 0 0 0 - - 0.0
21/02:00am 5.9 4.8 5.2 95 0.3 CALM 0 0 0 0 - - 0.0
21/01:30am 6.3 5.3 5.6 95 0.3 CALM 0 0 0 0 - - 0.0
21/01:00am 6.5 5.4 5.3 92 0.5 CALM 0 0 0 0 - - 0.0
21/12:30am 7.2 6.1 5.3 88 0.8 CALM 0 0 0 0 - - 0.0
21/12:00am 8.3 6.0 5.8 84 1.1 S 7 9 4 5 - - 0.0
 
Date/Time
EST
Temp
°C
App
Temp
°C
Dew
Point
Rel
Hum
%
Delta-T
°C
Wind Press
QNH
hPa
Press
MSL
hPa
Rain
since 9 am
mm
Dir
 
Spd
km/h
Gust
km/h
Spd
kts
Gust
kts
20/11:30pm 8.5 6.4 5.8 83 1.2 S 6 9 3 5 - - 0.0
20/11:00pm 8.8 6.6 6.1 83 1.2 S 7 11 4 6 - - 0.0
20/10:30pm 9.0 7.0 6.4 84 1.2 S 6 9 3 5 - - 0.0
20/10:00pm 9.6 8.1 6.9 83 1.3 SSW 4 6 2 3 - - 0.0
20/09:30pm 9.9 8.5 7.2 83 1.3 SSW 4 6 2 3 - - 0.0
20/09:00pm 9.7 7.7 7.3 85 1.1 SSW 7 7 4 4 - - 0.0
20/08:30pm 9.7 8.3 7.3 85 1.1 S 4 6 2 3 - - 0.0
20/08:00pm 9.8 8.4 7.1 83 1.3 S 4 7 2 4 - - 0.0
20/07:30pm 10.6 9.9 6.9 78 1.8 CALM 0 6 0 3 - - 0.0
20/07:00pm 11.2 10.1 7.1 76 2.0 S 2 7 1 4 - - 0.0
20/06:30pm 12.0 10.9 6.7 70 2.5 S 2 7 1 4 - - 0.0
20/06:00pm 13.2 11.3 6.5 64 3.2 S 6 9 3 5 - - 0.0
20/05:30pm 14.4 11.7 5.7 56 4.2 SE 9 20 5 11 - - 0.0
20/05:00pm 16.0 13.2 5.3 49 5.1 S 9 15 5 8 - - 0.0
20/04:30pm 16.5 13.2 4.5 45 5.7 SE 11 26 6 14 - - 0.0
20/04:00pm 16.8 13.3 5.4 47 5.5 SE 13 19 7 10 - - 0.0
20/03:30pm 17.1 13.1 5.1 45 5.8 ESE 15 22 8 12 - - 0.0
20/03:00pm 17.9 14.8 5.5 44 6.0 ESE 11 20 6 11 - - 0.0
20/02:30pm 18.5 15.3 6.7 46 5.9 ESE 13 20 7 11 - - 0.0
20/02:00pm 18.8 15.6 6.9 46 6.0 ESE 13 24 7 13 - - 0.0
20/01:30pm 20.3 18.1 8.0 45 6.4 E 9 17 5 9 - - 0.0
20/01:00pm 18.2 15.3 4.7 41 6.5 SE 9 15 5 8 - - 0.0
20/12:30pm 19.0 17.2 5.5 41 6.6 SSE 4 9 2 5 - - 0.0
20/12:00pm 19.2 16.9 5.6 41 6.7 SE 7 13 4 7 - - 0.0
20/11:30am 17.5 14.7 5.1 44 6.0 SSW 9 17 5 9 - - 0.0
20/11:00am 18.6 16.4 6.4 45 6.1 S 7 15 4 8 - - 0.0
20/10:30am 17.7 15.0 7.2 50 5.3 S 11 17 6 9 - - 0.0

Other Formats:

Comma delimited format used in spreadsheet applications
http://www.bom.gov.au/fwo/IDN60801/IDN60801.94757.axf

JavaScript Object Notation format (JSON) in row-major order
http://www.bom.gov.au/fwo/IDN60801/IDN60801.94757.json